Time;durP1;ratioP1;P1;durP2;ratioP2;P2;SDS_P1;SDS_P2;PMS_P1;PMS_P2;Temp;Humidity;BMP_temperature;BMP_pressure;BME280_temperature;BME280_humidity;BME280_pressure;Samples;Min_cycle;Max_cycle;Signal;HPM_P1;HPM_P2
2023/06/09 00:02:25;;;;;;;;;55.00;44.00;;;;;18.21;100.00;99291.72;6284280;20;3594108;-61
2023/06/09 00:04:56;;;;;;;;;54.75;45.00;;;;;18.11;100.00;99299.06;6285263;20;3615983;-61
2023/06/09 00:07:27;;;;;;;;;56.75;45.50;;;;;18.11;100.00;99296.34;6317794;20;3621198;-61
2023/06/09 00:09:55;;;;;;;;;61.00;44.67;;;;;18.05;100.00;99296.97;6314002;20;1917054;-61
2023/06/09 00:12:24;;;;;;;;;58.25;44.50;;;;;18.04;100.00;99281.69;6316924;20;4393959;-61
2023/06/09 00:14:53;;;;;;;;;56.00;42.25;;;;;18.02;100.00;99282.84;6315737;20;4390063;-62
2023/06/09 00:17:24;;;;;;;;;49.67;41.00;;;;;18.09;100.00;99279.38;6315681;20;3604463;-62
2023/06/09 00:20:01;;;;;;;;;59.67;46.00;;;;;18.11;100.00;99290.91;6280299;20;3631508;-62
2023/06/09 00:22:31;;;;;;;;;55.00;43.75;;;;;18.19;100.00;99299.19;6284828;20;4383624;-61
2023/06/09 00:24:59;;;;;;;;;53.33;42.67;;;;;18.21;100.00;99297.16;6313926;20;3602535;-61
2023/06/09 00:27:29;;;;;;;;;55.25;42.75;;;;;18.09;100.00;99295.66;6283934;20;3622635;-62
2023/06/09 00:29:58;;;;;;;;;54.25;44.25;;;;;18.09;100.00;99298.38;6316271;20;3624699;-61
2023/06/09 00:32:27;;;;;;;;;49.33;42.33;;;;;18.09;100.00;99289.34;6317257;20;3605495;-61
2023/06/09 00:34:55;;;;;;;;;48.00;40.33;;;;;18.04;100.00;99281.69;6278396;20;3583689;-61
2023/06/09 00:37:25;;;;;;;;;47.33;40.00;;;;;18.06;100.00;99278.78;6279146;20;2851287;-61
2023/06/09 00:39:53;;;;;;;;;49.67;41.00;;;;;18.11;100.00;99277.31;6314214;20;3590886;-61
2023/06/09 00:42:21;;;;;;;;;50.00;42.00;;;;;18.06;100.00;99282.41;6285361;20;3610850;-60
2023/06/09 00:44:50;;;;;;;;;50.33;42.00;;;;;18.06;100.00;99274.25;6283170;20;3608625;-61
2023/06/09 00:47:18;;;;;;;;;51.00;41.33;;;;;18.09;100.00;99273.94;6285718;20;3596159;-61
2023/06/09 00:49:48;;;;;;;;;48.33;41.33;;;;;18.13;100.00;99264.44;6283603;20;3608654;-61
2023/06/09 00:52:16;;;;;;;;;49.00;40.00;;;;;18.14;100.00;99265.31;6308361;20;3601315;-61
2023/06/09 00:54:45;;;;;;;;;47.00;39.67;;;;;18.09;100.00;99264.91;6283142;20;3606510;-61
2023/06/09 00:57:14;;;;;;;;;48.00;40.00;;;;;18.18;100.00;99270.28;6279393;20;2847259;-61
2023/06/09 00:59:42;;;;;;;;;48.67;40.67;;;;;18.10;100.00;99272.91;6310375;20;3589859;-61
2023/06/09 01:02:12;;;;;;;;;47.67;39.33;;;;;18.24;100.00;99278.84;6281204;20;2844232;-61
2023/06/09 01:04:49;;;;;;;;;47.00;39.33;;;;;18.31;100.00;99274.50;6314271;20;3582653;-61
2023/06/09 01:07:28;;;;;;;;;50.33;41.67;;;;;18.21;100.00;99267.25;6281476;20;3604455;-61
2023/06/09 01:10:38;;;;;;;;;47.67;39.00;;;;;18.14;100.00;99260.75;6313864;20;3604524;-61
2023/06/09 01:13:24;;;;;;;;;51.00;43.00;;;;;18.09;100.00;99254.03;6277157;20;3617977;-60
2023/06/09 01:16:01;;;;;;;;;51.50;41.50;;;;;18.10;100.00;99251.19;6279077;20;3625727;-61
2023/06/09 01:18:33;;;;;;;;;53.50;43.25;;;;;18.00;100.00;99253.09;6312467;20;3624252;-61
2023/06/09 01:21:32;;;;;;;;;49.67;40.67;;;;;17.98;100.00;99252.38;6311828;20;3601452;-61
2023/06/09 01:24:32;;;;;;;;;50.67;41.33;;;;;17.99;100.00;99240.53;6280315;20;3608749;-61
2023/06/09 01:27:03;;;;;;;;;49.33;40.67;;;;;17.92;100.00;99239.44;6281954;20;3592996;-61
2023/06/09 01:29:33;;;;;;;;;49.67;41.33;;;;;18.05;100.00;99239.06;6279760;20;3610694;-61
2023/06/09 01:32:03;;;;;;;;;49.00;39.67;;;;;18.03;100.00;99241.94;6311604;20;3594162;-61
2023/06/09 01:34:32;;;;;;;;;46.67;39.67;;;;;17.94;100.00;99232.00;6274221;20;3603431;-61
2023/06/09 01:37:02;;;;;;;;;48.33;40.33;;;;;17.96;100.00;99229.97;6274753;20;3614901;-60
2023/06/09 01:39:32;;;;;;;;;51.33;41.67;;;;;17.90;100.00;99230.56;6314583;20;3594191;-61
2023/06/09 01:42:01;;;;;;;;;50.00;41.00;;;;;17.88;100.00;99236.19;6278213;20;3603523;-61
2023/06/09 01:44:29;;;;;;;;;48.33;39.00;;;;;17.85;100.00;99238.31;6315339;20;3581530;-61
2023/06/09 01:46:58;;;;;;;;;48.67;40.33;;;;;17.72;100.00;99247.66;6277811;20;2840135;-60
2023/06/09 01:49:45;;;;;;;;;48.67;40.33;;;;;17.70;100.00;99257.81;6308300;20;3612812;-61
2023/06/09 01:52:44;;;;;;;;;50.00;40.33;;;;;17.82;100.00;99254.94;6273496;20;3621047;-61
2023/06/09 01:55:23;;;;;;;;;51.67;42.67;;;;;17.74;100.00;99252.94;6307025;20;3622139;-61
2023/06/09 01:57:58;;;;;;;;;48.67;39.67;;;;;17.97;100.00;99258.84;6275354;20;3582583;-61
2023/06/09 02:00:27;;;;;;;;;48.67;41.00;;;;;17.91;100.00;99259.47;6276728;20;3603400;-61
2023/06/09 02:02:59;;;;;;;;;45.67;39.00;;;;;17.97;100.00;99256.13;6276843;20;3599208;-62
2023/06/09 02:05:30;;;;;;;;;49.00;39.67;;;;;17.98;100.00;99255.09;6277475;20;3623168;-62
2023/06/09 02:08:00;;;;;;;;;48.00;39.67;;;;;17.92;100.00;99261.16;6310687;20;3598174;-61
2023/06/09 02:10:31;;;;;;;;;46.00;38.33;;;;;17.96;100.00;99260.72;6278398;20;2849210;-61
2023/06/09 02:13:12;;;;;;;;;49.67;41.33;;;;;17.99;100.00;99262.28;6314194;20;3607671;-61
2023/06/09 02:15:45;;;;;;;;;49.67;41.33;;;;;17.85;100.00;99254.63;6276507;20;3606536;-61
2023/06/09 02:18:17;;;;;;;;;45.67;38.33;;;;;17.95;100.00;99247.28;6311101;20;3597111;-61
2023/06/09 02:20:47;;;;;;;;;49.00;40.33;;;;;17.82;100.00;99247.63;6278027;20;3598193;-61
2023/06/09 02:23:20;;;;;;;;;46.00;38.67;;;;;17.92;100.00;99259.28;6313284;20;3603382;-61
2023/06/09 02:25:48;;;;;;;;;41.00;36.00;;;;;17.86;100.00;99259.06;6280229;20;2790863;-61
2023/06/09 02:28:17;;;;;;;;;49.67;41.67;;;;;17.80;100.00;99263.25;6276048;20;2852539;-60
2023/06/09 02:30:46;;;;;;;;;49.00;41.00;;;;;17.64;100.00;99261.16;6311642;20;3587800;-60
2023/06/09 02:33:15;;;;;;;;;48.67;40.67;;;;;17.74;100.00;99253.78;6275101;20;2854592;-61
2023/06/09 02:35:46;;;;;;;;;49.33;40.67;;;;;17.71;100.00;99259.50;6308998;20;3581497;-61
2023/06/09 02:38:15;;;;;;;;;51.00;40.67;;;;;17.85;100.00;99249.19;6276690;20;3607629;-61
2023/06/09 02:40:46;;;;;;;;;38.33;33.00;;;;;17.94;100.00;99242.84;6312756;20;3589873;-61
2023/06/09 02:43:15;;;;;;;;;46.33;39.67;;;;;17.87;100.00;99248.03;6277771;20;2858711;-60
2023/06/09 02:45:43;;;;;;;;;43.67;36.00;;;;;17.83;100.00;99243.91;6310699;20;3592969;-60
2023/06/09 02:48:15;;;;;;;;;40.00;35.00;;;;;17.87;100.00;99236.31;6273386;20;2859772;-60
2023/06/09 02:50:43;;;;;;;;;40.00;35.00;;;;;17.98;100.00;99236.09;6298170;20;3579555;-60
2023/06/09 02:53:12;;;;;;;;;47.33;38.00;;;;;17.88;100.00;99236.19;6260277;20;2855714;-60
2023/06/09 02:55:44;;;;;;;;;42.67;36.33;;;;;17.93;100.00;99236.56;6304713;20;3576393;-60
2023/06/09 02:58:14;;;;;;;;;42.33;36.00;;;;;17.84;100.00;99228.47;6277277;20;2855452;-60
2023/06/09 03:00:44;;;;;;;;;41.67;36.67;;;;;17.78;100.00;99233.47;6311766;20;3593008;-60
2023/06/09 03:03:13;;;;;;;;;46.00;37.67;;;;;17.72;100.00;99238.63;6281615;20;3584681;-61
2023/06/09 03:05:44;;;;;;;;;44.67;38.67;;;;;17.82;100.00;99225.06;6273904;20;3587924;-61
2023/06/09 03:08:12;;;;;;;;;44.00;36.00;;;;;17.74;100.00;99234.78;6311711;20;3588830;-61
2023/06/09 03:10:41;;;;;;;;;46.00;38.00;;;;;17.69;100.00;99234.41;6276074;20;3592084;-61
2023/06/09 03:13:09;;;;;;;;;49.67;40.67;;;;;17.76;100.00;99232.75;6308126;20;3598199;-61
2023/06/09 03:15:40;;;;;;;;;49.67;40.67;;;;;17.73;100.00;99233.06;6278548;20;3604509;-61
2023/06/09 03:18:08;;;;;;;;;50.67;41.00;;;;;17.83;100.00;99235.78;6277644;20;3598266;-61
2023/06/09 03:20:38;;;;;;;;;49.00;39.67;;;;;17.94;100.00;99232.00;6280758;20;3610713;-61
2023/06/09 03:23:08;;;;;;;;;45.00;36.00;;;;;17.90;100.00;99230.56;6281641;20;3596107;-61
2023/06/09 03:25:37;;;;;;;;;46.67;38.00;;;;;17.82;100.00;99235.91;6288550;20;3611828;-61
2023/06/09 03:28:05;;;;;;;;;49.33;39.00;;;;;17.77;100.00;99233.63;6283389;20;3608664;-60
2023/06/09 03:30:33;;;;;;;;;42.33;36.67;;;;;17.83;100.00;99237.66;6285245;20;3587806;-61
2023/06/09 03:33:02;;;;;;;;;48.00;40.33;;;;;17.70;100.00;99236.09;6279010;20;3586738;-60
2023/06/09 03:35:31;;;;;;;;;45.67;39.00;;;;;17.66;100.00;99229.25;6317205;20;3596590;-60
2023/06/09 03:37:59;;;;;;;;;43.00;36.00;;;;;17.76;100.00;99234.63;6283247;20;2729398;-60
2023/06/09 03:40:28;;;;;;;;;44.33;35.33;;;;;17.80;100.00;99236.09;6313344;20;3605488;-60
2023/06/09 03:42:56;;;;;;;;;43.67;37.67;;;;;17.72;100.00;99234.09;6315704;20;3594412;-61
2023/06/09 03:45:24;;;;;;;;;40.00;35.00;;;;;17.68;100.00;99237.25;6283758;20;3606510;-60
2023/06/09 03:47:54;;;;;;;;;47.33;39.33;;;;;17.74;100.00;99233.91;6282135;20;2855568;-61
2023/06/09 03:50:22;;;;;;;;;47.67;39.67;;;;;17.77;100.00;99234.50;6314634;20;3603442;-60
2023/06/09 03:52:50;;;;;;;;;47.00;39.00;;;;;17.85;100.00;99236.47;6282280;20;3610830;-60
2023/06/09 03:55:22;;;;;;;;;45.33;36.67;;;;;17.93;100.00;99238.41;6282154;20;3598232;-60
2023/06/09 03:57:51;;;;;;;;;44.00;37.00;;;;;17.92;100.00;99244.88;6281753;20;3602506;-61
2023/06/09 04:00:20;;;;;;;;;41.33;33.00;;;;;17.88;100.00;99249.75;6316632;20;3604451;-60
2023/06/09 04:02:49;;;;;;;;;46.00;37.67;;;;;17.85;100.00;99251.91;6283038;20;2854470;-60
2023/06/09 04:05:17;;;;;;;;;40.67;36.00;;;;;17.95;100.00;99255.41;6317739;20;3588812;-60
2023/06/09 04:07:45;;;;;;;;;41.67;34.67;;;;;18.05;100.00;99255.38;6285167;20;3585803;-61
2023/06/09 04:10:13;;;;;;;;;43.67;38.00;;;;;18.11;100.00;99266.47;6283770;20;3587816;-61
2023/06/09 04:12:42;;;;;;;;;42.00;34.67;;;;;18.09;100.00;99273.06;6283965;20;3591954;-61
2023/06/09 04:15:10;;;;;;;;;40.33;35.00;;;;;18.10;100.00;99270.19;6283985;20;3584672;-60
2023/06/09 04:17:38;;;;;;;;;34.00;32.00;;;;;18.09;100.00;99263.06;6283185;20;2832570;-61
2023/06/09 04:20:07;;;;;;;;;38.33;32.67;;;;;18.24;100.00;99270.69;6283204;20;3590949;-60
2023/06/09 04:22:47;;;;;;;;;43.25;34.50;;;;;18.26;100.00;99263.22;6285710;20;3614913;-61
2023/06/09 04:25:16;;;;;;;;;25.67;24.33;;;;;18.32;100.00;99258.03;6316719;20;3594055;-61
2023/06/09 04:27:45;;;;;;;;;36.33;32.67;;;;;18.25;100.00;99258.81;6283761;20;3600256;-61
2023/06/09 04:30:14;;;;;;;;;38.50;32.00;;;;;18.31;100.00;99260.91;6285853;20;3610748;-61
2023/06/09 04:32:42;;;;;;;;;37.33;32.00;;;;;18.21;100.00;99272.69;6317308;20;3606564;-61
2023/06/09 04:35:11;;;;;;;;;34.00;30.00;;;;;18.15;100.00;99278.75;6277154;20;3593094;-61
2023/06/09 04:37:40;;;;;;;;;38.00;33.00;;;;;18.31;100.00;99282.66;6283705;20;3619004;-61
2023/06/09 04:40:09;;;;;;;;;33.33;32.00;;;;;18.31;100.00;99271.78;6287662;20;3594503;-61
2023/06/09 04:42:39;;;;;;;;;37.67;33.33;;;;;18.25;100.00;99277.84;6278295;20;2861809;-61
2023/06/09 04:45:08;;;;;;;;;38.67;32.00;;;;;18.28;100.00;99266.66;6313608;20;3596168;-61
2023/06/09 04:47:37;;;;;;;;;35.67;32.33;;;;;18.40;100.00;99265.41;6284497;20;3597346;-60
2023/06/09 04:50:05;;;;;;;;;36.33;32.00;;;;;18.33;100.00;99264.34;6285541;20;3596088;-60
2023/06/09 04:52:38;;;;;;;;;33.33;31.00;;;;;18.33;100.00;99269.78;6284127;20;3573179;-61
2023/06/09 04:55:07;;;;;;;;;33.33;31.67;;;;;18.29;100.00;99271.06;6285428;20;3606531;-60
2023/06/09 04:57:36;;;;;;;;;31.00;30.00;;;;;18.32;100.00;99273.47;6282973;20;3581582;-61
2023/06/09 05:00:08;;;;;;;;;35.00;30.67;;;;;18.16;100.00;99277.72;6282162;20;3601307;-60
2023/06/09 05:02:39;;;;;;;;;33.67;30.67;;;;;18.12;100.00;99281.78;6313826;20;3592962;-60
2023/06/09 05:05:08;;;;;;;;;39.00;33.33;;;;;18.02;100.00;99278.25;6282600;20;3611723;-60
2023/06/09 05:07:40;;;;;;;;;38.00;33.33;;;;;18.06;100.00;99279.69;6284292;20;3609637;-60
2023/06/09 05:10:08;;;;;;;;;37.00;33.00;;;;;18.19;100.00;99284.72;6286581;20;3574280;-61
2023/06/09 05:12:38;;;;;;;;;36.67;32.33;;;;;17.99;100.00;99279.41;6283042;20;3612786;-60
2023/06/09 05:15:07;;;;;;;;;29.33;28.33;;;;;17.98;100.00;99287.72;6283198;20;3576286;-60
2023/06/09 05:17:41;;;;;;;;;34.67;32.00;;;;;18.01;100.00;99295.59;6282421;20;3591951;-60
2023/06/09 05:20:11;;;;;;;;;36.00;32.67;;;;;17.89;100.00;99304.94;6286674;20;3596068;-61
2023/06/09 05:22:39;;;;;;;;;34.00;32.00;;;;;17.91;100.00;99303.78;6285882;20;3597120;-60
2023/06/09 05:25:09;;;;;;;;;37.33;33.00;;;;;17.81;100.00;99308.41;6284206;20;3618013;-60
2023/06/09 05:27:37;;;;;;;;;40.00;33.00;;;;;17.87;100.00;99318.66;6284506;20;3614834;-60
2023/06/09 05:30:06;;;;;;;;;38.67;33.00;;;;;17.72;100.00;99323.69;6287137;20;3579450;-63
2023/06/09 05:32:36;;;;;;;;;44.00;36.33;;;;;17.72;100.00;99330.97;6283307;20;2852404;-62
2023/06/09 05:35:05;;;;;;;;;46.67;37.67;;;;;17.48;100.00;99323.34;6313472;20;3601347;-62
2023/06/09 05:37:34;;;;;;;;;37.00;32.67;;;;;17.51;100.00;99318.50;6280809;20;2858622;-62
2023/06/09 05:40:02;;;;;;;;;47.00;35.33;;;;;17.52;100.00;99317.47;6313378;20;3611779;-63
2023/06/09 05:42:30;;;;;;;;;35.67;31.67;;;;;17.32;100.00;99321.25;6280500;20;3604421;-63
2023/06/09 05:44:59;;;;;;;;;28.33;26.00;;;;;17.31;100.00;99327.69;6281816;20;3602336;-63
2023/06/09 05:47:29;;;;;;;;;31.00;27.67;;;;;17.34;100.00;99328.22;6279860;20;3601359;-63
2023/06/09 05:49:58;;;;;;;;;33.50;31.00;;;;;17.32;100.00;99340.22;6284228;20;3605490;-62
2023/06/09 05:52:26;;;;;;;;;34.67;31.00;;;;;17.54;100.00;99330.91;6315862;20;3590885;-63
2023/06/09 05:54:57;;;;;;;;;30.00;29.00;;;;;17.60;100.00;99343.88;6281244;20;3588812;-62
2023/06/09 05:57:29;;;;;;;;;35.00;30.33;;;;;17.50;100.00;99333.03;6281788;20;3595098;-63
2023/06/09 05:59:59;;;;;;;;;34.67;31.33;;;;;17.43;100.00;99336.50;6282068;20;3595079;-63
2023/06/09 06:02:27;;;;;;;;;35.67;31.67;;;;;17.52;100.00;99336.47;6312182;20;3597260;-63
2023/06/09 06:04:56;;;;;;;;;41.00;33.00;;;;;17.67;100.00;99334.16;6287162;20;3611809;-63
2023/06/09 06:07:24;;;;;;;;;31.00;29.33;;;;;17.69;100.00;99329.44;6284699;20;3587912;-63
2023/06/09 06:09:53;;;;;;;;;35.00;31.67;;;;;17.68;100.00;99335.84;6280376;20;3586909;-64
2023/06/09 06:12:21;;;;;;;;;37.33;32.00;;;;;17.62;100.00;99341.88;6316493;20;3605510;-63
2023/06/09 06:14:50;;;;;;;;;38.67;33.00;;;;;17.57;100.00;99349.63;6282895;20;3603489;-63
2023/06/09 06:17:18;;;;;;;;;34.67;32.67;;;;;17.53;100.00;99353.59;6281758;20;3602302;-63
2023/06/09 06:19:46;;;;;;;;;45.00;34.33;;;;;17.57;100.00;99346.91;6284900;20;3597152;-63
2023/06/09 06:22:14;;;;;;;;;37.33;33.00;;;;;17.63;100.00;99345.44;6285743;20;3571217;-63
2023/06/09 06:24:43;;;;;;;;;31.33;29.33;;;;;17.57;100.00;99344.19;6276646;20;2848309;-63
2023/06/09 06:27:11;;;;;;;;;34.67;30.00;;;;;17.58;100.00;99336.88;6314635;20;3595139;-63
2023/06/09 06:29:40;;;;;;;;;26.67;24.33;;;;;17.46;100.00;99341.66;6281878;20;3592044;-63
2023/06/09 06:32:10;;;;;;;;;25.33;23.33;;;;;17.32;100.00;99346.53;6283058;20;3583570;-63
2023/06/09 06:34:38;;;;;;;;;20.00;20.00;;;;;17.23;100.00;99341.97;6276512;20;2835771;-63
2023/06/09 06:37:07;;;;;;;;;18.00;17.00;;;;;17.09;100.00;99343.28;6277643;20;2823304;-63
2023/06/09 06:39:35;;;;;;;;;18.67;16.33;;;;;17.01;100.00;99329.59;6283686;20;2830696;-63
2023/06/09 06:42:04;;;;;;;;;14.67;12.67;;;;;16.82;100.00;99313.31;6312540;20;3536893;-63
2023/06/09 06:44:32;;;;;;;;;16.00;14.00;;;;;16.84;100.00;99323.03;6234202;20;3536768;-62
2023/06/09 06:46:59;;;;;;;;;15.50;15.50;;;;;16.95;100.00;99327.44;6291003;20;2491982;-63
2023/06/09 06:49:27;;;;;;;;;15.50;15.50;;;;;16.95;100.00;99326.59;6243386;20;2810808;-62
2023/06/09 06:51:56;;;;;;;;;14.00;11.67;;;;;16.87;100.00;99325.44;6276804;20;3515953;-63
2023/06/09 06:54:24;;;;;;;;;15.00;15.00;;;;;16.86;100.00;99329.16;6294851;20;3535877;-63
2023/06/09 06:56:52;;;;;;;;;16.33;15.00;;;;;17.02;100.00;99325.03;6308260;20;3556546;-63
2023/06/09 06:59:19;;;;;;;;;17.00;14.50;;;;;17.01;100.00;99317.88;6282137;20;2489909;-63
2023/06/09 07:01:49;;;;;;;;;18.50;17.00;;;;;17.14;100.00;99318.44;6284266;20;2830540;-63
2023/06/09 07:04:16;;;;;;;;;16.00;14.00;;;;;17.18;100.00;99306.28;6284183;20;2494069;-62
2023/06/09 07:06:45;;;;;;;;;16.00;16.00;;;;;17.16;100.00;99311.00;6284935;20;2824341;-63
2023/06/09 07:09:13;;;;;;;;;16.50;13.00;;;;;17.20;100.00;99315.13;6286076;20;2494128;-63
2023/06/09 07:11:44;;;;;;;;;16.00;15.00;;;;;17.22;100.00;99310.44;6286568;20;2812776;-62
2023/06/09 07:14:12;;;;;;;;;15.67;15.67;;;;;17.23;100.00;99303.97;6280825;20;3551305;-62
2023/06/09 07:16:43;;;;;;;;;16.00;16.00;;;;;17.44;100.00;99311.09;6281502;20;2483617;-62
2023/06/09 07:19:11;;;;;;;;;12.67;12.33;;;;;17.60;100.00;99313.16;6315895;20;3528413;-62
2023/06/09 07:21:39;;;;;;;;;12.67;12.67;;;;;17.65;100.00;99309.00;6280404;20;3536729;-62
2023/06/09 07:24:07;;;;;;;;;15.00;14.50;;;;;17.64;100.00;99311.84;6282378;20;2808729;-61
2023/06/09 07:26:36;;;;;;;;;14.33;14.33;;;;;17.88;100.00;99308.66;6281208;20;3533762;-62
2023/06/09 07:29:03;;;;;;;;;17.00;14.50;;;;;17.99;100.00;99312.00;6312447;20;2492364;-62
2023/06/09 07:31:32;;;;;;;;;16.67;14.67;;;;;18.01;100.00;99311.88;6284912;20;3545040;-62
2023/06/09 07:34:00;;;;;;;;;16.00;15.00;;;;;18.04;100.00;99316.16;6282498;20;3541022;-61
2023/06/09 07:36:29;;;;;;;;;19.00;17.00;;;;;18.10;100.00;99313.66;6239687;20;2830470;-61
2023/06/09 07:38:57;;;;;;;;;15.00;15.00;;;;;18.14;100.00;99320.53;6281540;20;2805547;-61
2023/06/09 07:41:28;;;;;;;;;16.00;16.00;;;;;18.15;100.00;99327.66;6283926;20;2483677;-60
2023/06/09 07:43:57;;;;;;;;;18.00;17.50;;;;;18.08;100.00;99342.00;6282288;20;2833642;-61
2023/06/09 07:46:25;;;;;;;;;17.00;15.00;;;;;17.93;100.00;99347.94;6282708;20;2816080;-60
2023/06/09 07:48:53;;;;;;;;;17.00;16.33;;;;;17.90;100.00;99340.06;6283115;20;3561758;-61
2023/06/09 07:51:22;;;;;;;;;19.50;19.50;;;;;17.85;100.00;99336.09;6285194;20;2831558;-60
2023/06/09 07:53:50;;;;;;;;;17.50;16.50;;;;;17.95;100.00;99343.19;6279833;20;2833333;-61
2023/06/09 07:56:18;;;;;;;;;20.00;18.00;;;;;17.96;100.00;99339.50;6280354;20;2836698;-61
2023/06/09 07:58:49;;;;;;;;;19.50;19.00;;;;;17.99;100.00;99341.06;6280706;20;2831641;-62
2023/06/09 08:01:17;;;;;;;;;19.33;18.67;;;;;18.16;100.00;99351.09;6278170;20;3573599;-61
2023/06/09 08:03:45;;;;;;;;;16.67;16.67;;;;;18.08;100.00;99345.56;6282368;20;3559777;-61
2023/06/09 08:06:14;;;;;;;;;19.67;18.00;;;;;18.14;100.00;99358.56;6317293;20;3565902;-61
2023/06/09 08:08:43;;;;;;;;;23.67;18.67;;;;;18.19;100.00;99356.25;6282017;20;2852455;-61
2023/06/09 08:11:12;;;;;;;;;18.50;18.50;;;;;18.13;100.00;99356.84;6312665;20;2829512;-61
2023/06/09 08:13:40;;;;;;;;;17.50;17.00;;;;;18.11;100.00;99367.00;6280383;20;2835684;-61
2023/06/09 08:16:08;;;;;;;;;19.00;19.00;;;;;18.12;100.00;99365.16;6283234;20;2833675;-61
2023/06/09 08:18:36;;;;;;;;;19.00;17.00;;;;;18.04;100.00;99371.34;6283819;20;3568048;-62
2023/06/09 08:21:06;;;;;;;;;21.00;21.00;;;;;18.14;100.00;99377.59;6283194;20;2839979;-61
2023/06/09 08:23:34;;;;;;;;;23.33;20.00;;;;;18.05;100.00;99374.91;6314628;20;3569053;-61
2023/06/09 08:26:02;;;;;;;;;17.50;17.50;;;;;18.04;100.00;99373.22;6280109;20;2833653;-62
2023/06/09 08:28:31;;;;;;;;;22.00;19.50;;;;;18.02;100.00;99375.22;6283004;20;2833671;-62
2023/06/09 08:30:59;;;;;;;;;18.00;17.00;;;;;18.23;100.00;99372.25;6278564;20;2822150;-62
2023/06/09 08:33:28;;;;;;;;;18.67;18.67;;;;;18.08;100.00;99371.88;6286233;20;3566959;-62
2023/06/09 08:35:56;;;;;;;;;20.00;17.67;;;;;18.01;100.00;99362.63;6317872;20;3577369;-62
2023/06/09 08:38:24;;;;;;;;;21.00;19.50;;;;;18.06;100.00;99372.06;6282876;20;2840688;-62
2023/06/09 08:40:57;;;;;;;;;23.33;21.33;;;;;18.33;100.00;99375.78;6284249;20;3584768;-62
2023/06/09 08:43:25;;;;;;;;;19.00;18.67;;;;;18.39;100.00;99381.44;6282770;20;3577423;-61
2023/06/09 08:45:55;;;;;;;;;20.00;18.00;;;;;18.27;100.00;99379.06;6286121;20;3570175;-62
2023/06/09 08:48:26;;;;;;;;;17.00;17.00;;;;;18.46;100.00;99370.81;6283779;20;3557669;-62
2023/06/09 08:50:55;;;;;;;;;22.33;20.67;;;;;18.47;100.00;99379.84;6281238;20;2844095;-61
2023/06/09 08:53:25;;;;;;;;;17.00;17.00;;;;;18.43;100.00;99368.38;6317630;20;3567055;-62
2023/06/09 08:55:53;;;;;;;;;21.00;19.00;;;;;18.47;100.00;99366.25;6283634;20;2836741;-62
2023/06/09 08:58:22;;;;;;;;;17.50;17.00;;;;;18.62;100.00;99370.16;6285358;20;2835785;-62
2023/06/09 09:00:51;;;;;;;;;16.50;16.50;;;;;18.71;100.00;99365.63;6285032;20;2824370;-62
2023/06/09 09:03:20;;;;;;;;;19.00;18.00;;;;;18.70;100.00;99366.66;6280782;20;2831926;-62
2023/06/09 09:05:48;;;;;;;;;15.50;15.50;;;;;18.78;100.00;99367.63;6284933;20;3437720;-62
2023/06/09 09:08:20;;;;;;;;;21.00;19.33;;;;;18.81;100.00;99361.88;6316477;20;3577471;-61
2023/06/09 09:10:48;;;;;;;;;15.67;15.67;;;;;18.91;100.00;99356.34;6282195;20;3548165;-62
2023/06/09 09:13:18;;;;;;;;;19.00;19.00;;;;;18.98;100.00;99360.13;6283713;20;2831612;-62
2023/06/09 09:15:50;;;;;;;;;21.00;16.00;;;;;18.95;100.00;99360.47;6285112;20;2835704;-61
2023/06/09 09:18:21;;;;;;;;;16.00;16.00;;;;;19.02;100.00;99355.25;6285451;20;3551302;-61
2023/06/09 09:20:49;;;;;;;;;16.67;16.67;;;;;19.11;100.00;99353.47;6314035;20;3564844;-61
2023/06/09 09:23:18;;;;;;;;;14.50;14.50;;;;;19.14;100.00;99345.84;6281766;20;2810767;-61
2023/06/09 09:25:49;;;;;;;;;15.67;15.67;;;;;19.31;100.00;99357.72;6277083;20;3558626;-60
2023/06/09 09:28:17;;;;;;;;;17.00;16.00;;;;;19.36;100.00;99349.06;6281199;20;2822183;-61
2023/06/09 09:30:54;;;;;;;;;16.50;15.50;;;;;19.25;100.00;99352.91;6277396;20;2819090;-60
2023/06/09 09:33:27;;;;;;;;;9.67;8.00;;;;;19.27;100.00;99351.75;6281136;20;2755481;-60
2023/06/09 09:35:59;;;;;;;;;16.00;14.00;;;;;19.00;100.00;99355.41;6314154;20;3538877;-61
2023/06/09 09:38:30;;;;;;;;;15.33;15.33;;;;;19.12;100.00;99358.75;6283434;20;3539970;-61
2023/06/09 09:41:00;;;;;;;;;14.00;12.67;;;;;18.83;100.00;99357.13;6284640;20;2803494;-61
2023/06/09 09:43:29;;;;;;;;;16.00;15.00;;;;;18.77;100.00;99359.59;6312600;20;2648203;-61
2023/06/09 09:46:07;;;;;;;;;15.33;15.33;;;;;18.72;100.00;99351.91;6313297;20;3548179;-61
2023/06/09 09:48:37;;;;;;;;;16.50;14.50;;;;;18.71;100.00;99354.75;6283700;20;2817181;-61
2023/06/09 09:51:08;;;;;;;;;15.67;15.00;;;;;18.77;100.00;99365.03;6281373;20;3532586;-61
2023/06/09 09:53:36;;;;;;;;;18.50;18.00;;;;;18.80;100.00;99362.00;6276258;20;2485706;-61
2023/06/09 09:56:05;;;;;;;;;18.00;15.00;;;;;18.88;100.00;99362.13;6282325;20;2816076;-60
2023/06/09 09:58:36;;;;;;;;;16.00;16.00;;;;;18.65;100.00;99365.25;6277541;20;2820141;-61
2023/06/09 10:01:07;;;;;;;;;14.00;14.00;;;;;18.80;100.00;99359.28;6279977;20;3519044;-61
2023/06/09 10:03:41;;;;;;;;;18.00;15.00;;;;;18.62;100.00;99351.97;6312517;20;2819031;-61
2023/06/09 10:06:14;;;;;;;;;15.33;12.67;;;;;18.77;100.00;99354.16;6282078;20;3529499;-61
2023/06/09 10:08:42;;;;;;;;;15.00;15.00;;;;;18.93;100.00;99356.19;6278551;20;2810826;-61
2023/06/09 10:11:12;;;;;;;;;17.00;14.33;;;;;19.21;100.00;99351.50;6279638;20;2483638;-61
2023/06/09 10:13:41;;;;;;;;;14.50;14.50;;;;;19.25;100.00;99347.47;6312187;20;2793172;-62
2023/06/09 10:16:12;;;;;;;;;16.00;15.00;;;;;19.49;100.00;99349.50;6283289;20;2807687;-61
2023/06/09 10:18:42;;;;;;;;;15.00;14.00;;;;;19.43;100.00;99351.00;6280413;20;3531604;-62
2023/06/09 10:21:11;;;;;;;;;16.00;14.67;;;;;19.67;100.00;99347.63;6274849;20;3532573;-61
2023/06/09 10:23:40;;;;;;;;;14.00;14.00;;;;;19.45;100.00;99348.09;6273682;20;2491987;-62
2023/06/09 10:26:13;;;;;;;;;14.67;13.33;;;;;19.80;100.00;99341.72;6308242;20;3517996;-61
2023/06/09 10:28:41;;;;;;;;;15.00;14.00;;;;;19.95;100.00;99344.69;6293907;20;3515976;-61
2023/06/09 10:31:20;;;;;;;;;13.00;13.00;;;;;20.32;100.00;99347.03;6286520;20;3524234;-61
2023/06/09 10:33:52;;;;;;;;;13.00;13.00;;;;;19.95;100.00;99345.53;6319243;20;3517927;-61
2023/06/09 10:36:21;;;;;;;;;12.67;12.00;;;;;20.15;100.00;99339.84;6316890;20;3521097;-61
2023/06/09 10:38:53;;;;;;;;;16.00;13.67;;;;;20.55;100.00;99341.84;6288881;20;3522139;-61
2023/06/09 10:41:28;;;;;;;;;15.33;14.33;;;;;20.45;100.00;99340.25;6314933;20;3537885;-62
2023/06/09 10:44:16;;;;;;;;;15.33;13.67;;;;;20.63;100.00;99343.75;6288551;20;2483670;-63
2023/06/09 10:46:47;;;;;;;;;13.00;12.33;;;;;21.29;100.00;99338.34;6318925;20;2792992;-63
2023/06/09 10:49:25;;;;;;;;;11.00;11.00;;;;;20.77;100.00;99337.66;6319762;20;3520074;-61
2023/06/09 10:51:55;;;;;;;;;10.67;10.67;;;;;20.35;100.00;99335.81;6286061;20;3520042;-60
2023/06/09 10:54:27;;;;;;;;;11.33;11.33;;;;;20.21;100.00;99338.31;6289257;20;2790964;-61
2023/06/09 10:57:27;;;;;;;;;11.00;11.00;;;;;20.10;100.00;99334.03;6318525;20;3539990;-61
2023/06/09 10:59:55;;;;;;;;;11.00;10.67;;;;;20.39;100.00;99342.63;6287137;20;2489924;-61
2023/06/09 11:02:23;;;;;;;;;12.33;12.33;;;;;20.29;100.00;99333.75;6316595;20;3529407;-61
2023/06/09 11:04:52;;;;;;;;;10.33;10.33;;;;;20.29;100.00;99325.56;6285461;20;3512760;-61
2023/06/09 11:07:33;;;;;;;;;7.67;7.67;;;;;20.28;100.00;99323.88;6325002;20;2748212;-61
2023/06/09 11:10:00;;;;;;;;;10.33;10.33;;;;;20.70;100.00;99331.16;6318757;20;3510789;-61